sensor_id;sensor_type;location;lat;lon;timestamp;P1;durP1;ratioP1;P2;durP2;ratioP2
77217;SDS011;66214;51.302;17.068;2023-04-08T00:01:13;15.60;;;7.50;;
77217;SDS011;66214;51.302;17.068;2023-04-08T00:03:41;17.50;;;7.80;;
77217;SDS011;66214;51.302;17.068;2023-04-08T00:06:08;16.40;;;7.40;;
77217;SDS011;66214;51.302;17.068;2023-04-08T00:08:37;19.20;;;8.20;;
77217;SDS011;66214;51.302;17.068;2023-04-08T00:11:05;17.90;;;7.20;;
77217;SDS011;66214;51.302;17.068;2023-04-08T00:13:33;21.50;;;8.80;;
77217;SDS011;66214;51.302;17.068;2023-04-08T00:16:01;24.20;;;10.40;;
77217;SDS011;66214;51.302;17.068;2023-04-08T00:18:29;22.70;;;10.50;;
77217;SDS011;66214;51.302;17.068;2023-04-08T00:20:57;23.40;;;10.90;;
77217;SDS011;66214;51.302;17.068;2023-04-08T14:29:34;12.10;;;7.70;;
77217;SDS011;66214;51.302;17.068;2023-04-08T14:32:02;12.70;;;8.20;;
77217;SDS011;66214;51.302;17.068;2023-04-08T14:34:30;12.60;;;7.70;;
77217;SDS011;66214;51.302;17.068;2023-04-08T14:36:58;11.90;;;8.20;;
77217;SDS011;66214;51.302;17.068;2023-04-08T14:39:26;12.50;;;8.00;;
77217;SDS011;66214;51.302;17.068;2023-04-08T14:41:54;12.10;;;7.80;;
77217;SDS011;66214;51.302;17.068;2023-04-08T14:44:24;12.60;;;8.20;;
77217;SDS011;66214;51.302;17.068;2023-04-08T14:46:52;13.30;;;8.90;;
77217;SDS011;66214;51.302;17.068;2023-04-08T14:49:20;11.40;;;7.60;;
77217;SDS011;66214;51.302;17.068;2023-04-08T14:51:48;11.80;;;7.60;;
77217;SDS011;66214;51.302;17.068;2023-04-08T14:54:16;13.10;;;8.30;;
77217;SDS011;66214;51.302;17.068;2023-04-08T14:56:45;12.90;;;7.90;;
77217;SDS011;66214;51.302;17.068;2023-04-08T14:59:13;14.50;;;9.30;;
77217;SDS011;66214;51.302;17.068;2023-04-08T15:01:41;13.00;;;8.40;;
77217;SDS011;66214;51.302;17.068;2023-04-08T15:04:11;12.60;;;8.30;;
77217;SDS011;66214;51.302;17.068;2023-04-08T15:06:39;16.40;;;9.90;;
77217;SDS011;66214;51.302;17.068;2023-04-08T15:09:07;13.70;;;8.80;;
77217;SDS011;66214;51.302;17.068;2023-04-08T15:11:36;12.70;;;7.80;;
77217;SDS011;66214;51.302;17.068;2023-04-08T15:14:04;14.70;;;8.60;;
77217;SDS011;66214;51.302;17.068;2023-04-08T15:16:32;15.70;;;8.60;;
77217;SDS011;66214;51.302;17.068;2023-04-08T15:18:59;14.70;;;8.20;;
77217;SDS011;66214;51.302;17.068;2023-04-08T15:21:28;19.70;;;11.20;;
77217;SDS011;66214;51.302;17.068;2023-04-08T15:23:57;13.30;;;8.00;;
77217;SDS011;66214;51.302;17.068;2023-04-08T15:26:25;14.10;;;8.70;;
77217;SDS011;66214;51.302;17.068;2023-04-08T15:28:54;13.70;;;8.90;;
77217;SDS011;66214;51.302;17.068;2023-04-08T15:31:23;15.70;;;9.90;;
77217;SDS011;66214;51.302;17.068;2023-04-08T15:33:51;13.60;;;8.70;;
77217;SDS011;66214;51.302;17.068;2023-04-08T15:36:20;12.90;;;8.60;;
77217;SDS011;66214;51.302;17.068;2023-04-08T15:38:48;12.80;;;8.50;;
77217;SDS011;66214;51.302;17.068;2023-04-08T15:41:17;14.80;;;8.70;;
77217;SDS011;66214;51.302;17.068;2023-04-08T15:43:47;13.90;;;8.20;;
77217;SDS011;66214;51.302;17.068;2023-04-08T15:46:20;11.70;;;7.80;;
77217;SDS011;66214;51.302;17.068;2023-04-08T15:48:48;13.60;;;8.20;;
77217;SDS011;66214;51.302;17.068;2023-04-08T15:51:17;13.80;;;9.30;;
77217;SDS011;66214;51.302;17.068;2023-04-08T15:53:46;16.30;;;10.80;;
77217;SDS011;66214;51.302;17.068;2023-04-08T15:56:18;19.40;;;11.70;;
77217;SDS011;66214;51.302;17.068;2023-04-08T15:58:46;15.60;;;9.80;;
77217;SDS011;66214;51.302;17.068;2023-04-08T16:01:14;22.60;;;11.00;;
77217;SDS011;66214;51.302;17.068;2023-04-08T16:03:43;21.30;;;12.20;;
77217;SDS011;66214;51.302;17.068;2023-04-08T16:06:11;16.10;;;9.80;;
77217;SDS011;66214;51.302;17.068;2023-04-08T16:08:39;16.50;;;9.40;;
77217;SDS011;66214;51.302;17.068;2023-04-08T16:11:08;17.20;;;10.60;;
77217;SDS011;66214;51.302;17.068;2023-04-08T16:13:36;24.50;;;12.30;;
77217;SDS011;66214;51.302;17.068;2023-04-08T16:16:07;39.50;;;17.90;;
77217;SDS011;66214;51.302;17.068;2023-04-08T16:18:35;27.90;;;13.60;;
77217;SDS011;66214;51.302;17.068;2023-04-08T16:21:03;21.00;;;11.60;;
77217;SDS011;66214;51.302;17.068;2023-04-08T16:23:34;22.50;;;10.60;;
77217;SDS011;66214;51.302;17.068;2023-04-08T16:26:04;17.30;;;10.60;;
77217;SDS011;66214;51.302;17.068;2023-04-08T16:28:37;20.70;;;11.70;;
77217;SDS011;66214;51.302;17.068;2023-04-08T16:31:06;26.50;;;13.40;;
77217;SDS011;66214;51.302;17.068;2023-04-08T16:33:34;21.80;;;13.00;;
77217;SDS011;66214;51.302;17.068;2023-04-08T16:36:03;23.80;;;12.90;;
77217;SDS011;66214;51.302;17.068;2023-04-08T16:38:31;27.80;;;14.00;;
77217;SDS011;66214;51.302;17.068;2023-04-08T16:40:59;23.10;;;13.60;;
77217;SDS011;66214;51.302;17.068;2023-04-08T16:43:28;25.80;;;13.30;;
77217;SDS011;66214;51.302;17.068;2023-04-08T16:45:56;27.10;;;14.20;;
77217;SDS011;66214;51.302;17.068;2023-04-08T16:48:24;23.20;;;11.30;;
77217;SDS011;66214;51.302;17.068;2023-04-08T16:50:52;32.20;;;16.90;;
77217;SDS011;66214;51.302;17.068;2023-04-08T16:53:20;26.80;;;14.00;;
77217;SDS011;66214;51.302;17.068;2023-04-08T16:55:48;21.30;;;11.90;;
77217;SDS011;66214;51.302;17.068;2023-04-08T16:58:16;21.50;;;11.40;;
77217;SDS011;66214;51.302;17.068;2023-04-08T17:00:44;20.20;;;11.00;;
77217;SDS011;66214;51.302;17.068;2023-04-08T17:03:13;18.90;;;10.50;;
77217;SDS011;66214;51.302;17.068;2023-04-08T17:05:41;18.90;;;10.30;;
77217;SDS011;66214;51.302;17.068;2023-04-08T17:08:09;21.20;;;11.90;;
77217;SDS011;66214;51.302;17.068;2023-04-08T17:10:37;20.10;;;11.20;;
77217;SDS011;66214;51.302;17.068;2023-04-08T17:13:05;22.30;;;11.30;;
77217;SDS011;66214;51.302;17.068;2023-04-08T17:15:36;18.00;;;11.10;;
77217;SDS011;66214;51.302;17.068;2023-04-08T17:18:05;20.40;;;10.50;;
77217;SDS011;66214;51.302;17.068;2023-04-08T17:20:33;19.80;;;10.60;;
77217;SDS011;66214;51.302;17.068;2023-04-08T17:23:02;19.80;;;11.10;;
77217;SDS011;66214;51.302;17.068;2023-04-08T17:25:30;19.40;;;10.80;;
77217;SDS011;66214;51.302;17.068;2023-04-08T17:27:58;26.80;;;11.40;;
77217;SDS011;66214;51.302;17.068;2023-04-08T17:30:27;22.10;;;12.40;;
77217;SDS011;66214;51.302;17.068;2023-04-08T17:32:55;24.40;;;13.90;;
77217;SDS011;66214;51.302;17.068;2023-04-08T17:35:23;28.90;;;16.40;;
77217;SDS011;66214;51.302;17.068;2023-04-08T17:37:51;34.60;;;21.10;;
77217;SDS011;66214;51.302;17.068;2023-04-08T17:40:19;27.50;;;16.10;;
77217;SDS011;66214;51.302;17.068;2023-04-08T17:42:48;23.90;;;14.10;;
77217;SDS011;66214;51.302;17.068;2023-04-08T17:45:16;29.00;;;14.20;;
77217;SDS011;66214;51.302;17.068;2023-04-08T17:47:44;25.70;;;15.30;;
77217;SDS011;66214;51.302;17.068;2023-04-08T17:50:12;30.00;;;16.40;;
77217;SDS011;66214;51.302;17.068;2023-04-08T17:52:44;34.40;;;19.50;;
77217;SDS011;66214;51.302;17.068;2023-04-08T17:55:13;41.60;;;24.50;;
77217;SDS011;66214;51.302;17.068;2023-04-08T17:57:41;44.90;;;27.40;;
77217;SDS011;66214;51.302;17.068;2023-04-08T18:00:10;42.00;;;22.90;;
77217;SDS011;66214;51.302;17.068;2023-04-08T18:02:38;46.70;;;26.20;;
77217;SDS011;66214;51.302;17.068;2023-04-08T18:05:09;35.90;;;20.40;;
77217;SDS011;66214;51.302;17.068;2023-04-08T18:07:38;36.60;;;19.90;;
77217;SDS011;66214;51.302;17.068;2023-04-08T18:10:07;41.60;;;24.10;;
77217;SDS011;66214;51.302;17.068;2023-04-08T18:12:35;42.20;;;24.40;;
77217;SDS011;66214;51.302;17.068;2023-04-08T18:15:04;40.80;;;23.60;;
77217;SDS011;66214;51.302;17.068;2023-04-08T18:17:33;41.40;;;22.60;;
77217;SDS011;66214;51.302;17.068;2023-04-08T18:20:02;46.10;;;23.30;;
77217;SDS011;66214;51.302;17.068;2023-04-08T18:22:30;38.60;;;20.00;;
77217;SDS011;66214;51.302;17.068;2023-04-08T18:24:58;37.90;;;20.40;;
77217;SDS011;66214;51.302;17.068;2023-04-08T18:27:26;39.30;;;19.50;;
77217;SDS011;66214;51.302;17.068;2023-04-08T18:29:54;44.00;;;23.40;;
77217;SDS011;66214;51.302;17.068;2023-04-08T18:32:22;45.50;;;24.70;;
77217;SDS011;66214;51.302;17.068;2023-04-08T18:34:53;46.60;;;23.90;;
77217;SDS011;66214;51.302;17.068;2023-04-08T18:37:21;42.20;;;21.40;;
77217;SDS011;66214;51.302;17.068;2023-04-08T18:39:50;37.90;;;19.60;;
77217;SDS011;66214;51.302;17.068;2023-04-08T18:42:19;38.30;;;20.70;;
77217;SDS011;66214;51.302;17.068;2023-04-08T18:44:48;42.00;;;22.00;;
77217;SDS011;66214;51.302;17.068;2023-04-08T18:47:16;40.40;;;20.80;;
77217;SDS011;66214;51.302;17.068;2023-04-08T18:49:45;34.90;;;21.80;;
77217;SDS011;66214;51.302;17.068;2023-04-08T18:52:14;37.90;;;20.20;;
77217;SDS011;66214;51.302;17.068;2023-04-08T18:54:43;35.20;;;19.90;;
77217;SDS011;66214;51.302;17.068;2023-04-08T18:57:13;34.50;;;19.30;;
77217;SDS011;66214;51.302;17.068;2023-04-08T18:59:41;35.20;;;21.00;;
77217;SDS011;66214;51.302;17.068;2023-04-08T19:02:10;30.90;;;18.60;;
77217;SDS011;66214;51.302;17.068;2023-04-08T19:04:38;36.10;;;19.60;;
77217;SDS011;66214;51.302;17.068;2023-04-08T19:07:05;38.60;;;19.60;;
77217;SDS011;66214;51.302;17.068;2023-04-08T19:09:34;47.10;;;22.80;;
77217;SDS011;66214;51.302;17.068;2023-04-08T19:12:02;44.90;;;23.10;;
77217;SDS011;66214;51.302;17.068;2023-04-08T19:14:30;53.60;;;26.40;;
77217;SDS011;66214;51.302;17.068;2023-04-08T19:16:59;50.60;;;24.90;;
77217;SDS011;66214;51.302;17.068;2023-04-08T19:19:28;53.80;;;25.30;;
77217;SDS011;66214;51.302;17.068;2023-04-08T19:21:57;47.70;;;23.60;;
77217;SDS011;66214;51.302;17.068;2023-04-08T19:24:25;41.90;;;22.80;;
77217;SDS011;66214;51.302;17.068;2023-04-08T19:26:53;44.20;;;23.70;;
77217;SDS011;66214;51.302;17.068;2023-04-08T19:29:22;39.80;;;20.00;;
77217;SDS011;66214;51.302;17.068;2023-04-08T19:31:51;41.20;;;20.50;;
77217;SDS011;66214;51.302;17.068;2023-04-08T19:34:20;39.60;;;20.10;;
77217;SDS011;66214;51.302;17.068;2023-04-08T19:36:49;40.60;;;21.90;;
77217;SDS011;66214;51.302;17.068;2023-04-08T19:39:17;56.10;;;27.10;;
77217;SDS011;66214;51.302;17.068;2023-04-08T19:41:46;46.10;;;24.10;;
77217;SDS011;66214;51.302;17.068;2023-04-08T19:44:14;46.00;;;25.40;;
77217;SDS011;66214;51.302;17.068;2023-04-08T19:46:43;48.60;;;23.60;;
77217;SDS011;66214;51.302;17.068;2023-04-08T19:49:11;55.00;;;26.30;;
77217;SDS011;66214;51.302;17.068;2023-04-08T19:51:39;53.00;;;25.50;;
77217;SDS011;66214;51.302;17.068;2023-04-08T19:54:07;49.20;;;24.20;;
77217;SDS011;66214;51.302;17.068;2023-04-08T19:56:36;45.20;;;23.40;;
77217;SDS011;66214;51.302;17.068;2023-04-08T19:59:03;46.30;;;22.80;;
77217;SDS011;66214;51.302;17.068;2023-04-08T20:01:32;43.60;;;20.60;;
77217;SDS011;66214;51.302;17.068;2023-04-08T20:04:02;43.80;;;22.00;;
77217;SDS011;66214;51.302;17.068;2023-04-08T20:06:30;46.40;;;20.80;;
77217;SDS011;66214;51.302;17.068;2023-04-08T20:08:58;57.20;;;21.90;;
77217;SDS011;66214;51.302;17.068;2023-04-08T20:11:32;45.00;;;21.30;;
77217;SDS011;66214;51.302;17.068;2023-04-08T20:14:02;50.90;;;24.70;;
77217;SDS011;66214;51.302;17.068;2023-04-08T20:16:30;49.40;;;24.10;;
77217;SDS011;66214;51.302;17.068;2023-04-08T20:18:59;50.20;;;24.70;;
77217;SDS011;66214;51.302;17.068;2023-04-08T20:21:27;46.70;;;22.80;;
77217;SDS011;66214;51.302;17.068;2023-04-08T20:23:55;51.40;;;25.30;;
77217;SDS011;66214;51.302;17.068;2023-04-08T20:26:24;46.70;;;23.10;;
77217;SDS011;66214;51.302;17.068;2023-04-08T20:28:52;54.10;;;23.10;;
77217;SDS011;66214;51.302;17.068;2023-04-08T20:31:20;54.70;;;25.60;;
77217;SDS011;66214;51.302;17.068;2023-04-08T20:33:48;54.10;;;25.80;;
77217;SDS011;66214;51.302;17.068;2023-04-08T20:36:16;63.30;;;26.60;;
77217;SDS011;66214;51.302;17.068;2023-04-08T20:38:44;64.40;;;31.90;;
77217;SDS011;66214;51.302;17.068;2023-04-08T20:41:17;49.50;;;24.50;;
77217;SDS011;66214;51.302;17.068;2023-04-08T20:43:48;43.70;;;20.70;;
77217;SDS011;66214;51.302;17.068;2023-04-08T20:46:18;42.00;;;20.80;;
77217;SDS011;66214;51.302;17.068;2023-04-08T20:48:46;46.00;;;22.00;;
77217;SDS011;66214;51.302;17.068;2023-04-08T20:51:14;42.10;;;20.60;;
77217;SDS011;66214;51.302;17.068;2023-04-08T20:53:43;41.50;;;19.40;;
77217;SDS011;66214;51.302;17.068;2023-04-08T20:56:12;39.90;;;19.60;;
77217;SDS011;66214;51.302;17.068;2023-04-08T20:58:40;46.40;;;21.80;;
77217;SDS011;66214;51.302;17.068;2023-04-08T21:01:08;37.70;;;19.40;;
77217;SDS011;66214;51.302;17.068;2023-04-08T21:03:36;41.50;;;20.10;;
77217;SDS011;66214;51.302;17.068;2023-04-08T21:06:05;37.50;;;19.80;;
77217;SDS011;66214;51.302;17.068;2023-04-08T21:08:33;43.80;;;21.00;;
77217;SDS011;66214;51.302;17.068;2023-04-08T21:11:01;40.70;;;19.80;;
77217;SDS011;66214;51.302;17.068;2023-04-08T21:13:29;46.00;;;22.10;;
77217;SDS011;66214;51.302;17.068;2023-04-08T21:15:57;45.20;;;22.30;;
77217;SDS011;66214;51.302;17.068;2023-04-08T21:18:25;42.70;;;21.70;;
77217;SDS011;66214;51.302;17.068;2023-04-08T21:20:53;48.00;;;23.50;;
77217;SDS011;66214;51.302;17.068;2023-04-08T21:23:21;42.00;;;21.40;;
77217;SDS011;66214;51.302;17.068;2023-04-08T21:25:50;43.50;;;20.10;;
77217;SDS011;66214;51.302;17.068;2023-04-08T21:28:18;47.80;;;22.60;;
77217;SDS011;66214;51.302;17.068;2023-04-08T21:30:46;46.00;;;21.70;;
77217;SDS011;66214;51.302;17.068;2023-04-08T21:33:14;45.00;;;21.10;;
77217;SDS011;66214;51.302;17.068;2023-04-08T21:35:42;44.40;;;21.90;;
77217;SDS011;66214;51.302;17.068;2023-04-08T21:38:11;45.90;;;21.40;;
77217;SDS011;66214;51.302;17.068;2023-04-08T21:40:39;42.40;;;20.80;;
77217;SDS011;66214;51.302;17.068;2023-04-08T21:43:08;44.90;;;21.30;;
77217;SDS011;66214;51.302;17.068;2023-04-08T21:45:36;44.30;;;22.00;;
77217;SDS011;66214;51.302;17.068;2023-04-08T21:48:05;44.30;;;22.90;;
77217;SDS011;66214;51.302;17.068;2023-04-08T21:50:36;44.20;;;21.50;;
77217;SDS011;66214;51.302;17.068;2023-04-08T21:53:04;48.60;;;23.60;;
77217;SDS011;66214;51.302;17.068;2023-04-08T21:55:32;55.40;;;25.10;;
77217;SDS011;66214;51.302;17.068;2023-04-08T21:58:00;44.50;;;22.30;;
77217;SDS011;66214;51.302;17.068;2023-04-08T22:00:28;47.30;;;24.50;;
77217;SDS011;66214;51.302;17.068;2023-04-08T22:02:56;64.70;;;32.50;;
77217;SDS011;66214;51.302;17.068;2023-04-08T22:05:24;52.80;;;24.90;;
77217;SDS011;66214;51.302;17.068;2023-04-08T22:07:52;49.00;;;23.50;;
77217;SDS011;66214;51.302;17.068;2023-04-08T22:10:20;56.70;;;24.50;;
77217;SDS011;66214;51.302;17.068;2023-04-08T22:12:48;51.50;;;24.30;;
77217;SDS011;66214;51.302;17.068;2023-04-08T22:15:16;56.50;;;25.40;;
77217;SDS011;66214;51.302;17.068;2023-04-08T22:17:44;48.80;;;24.30;;
77217;SDS011;66214;51.302;17.068;2023-04-08T22:20:13;48.10;;;22.50;;
77217;SDS011;66214;51.302;17.068;2023-04-08T22:22:40;53.40;;;24.30;;
77217;SDS011;66214;51.302;17.068;2023-04-08T22:25:09;49.30;;;22.80;;
77217;SDS011;66214;51.302;17.068;2023-04-08T22:27:37;50.70;;;23.40;;
77217;SDS011;66214;51.302;17.068;2023-04-08T22:30:06;53.70;;;24.60;;
77217;SDS011;66214;51.302;17.068;2023-04-08T22:32:34;50.50;;;23.10;;
77217;SDS011;66214;51.302;17.068;2023-04-08T22:35:03;45.20;;;23.60;;
77217;SDS011;66214;51.302;17.068;2023-04-08T22:37:31;48.80;;;23.30;;
77217;SDS011;66214;51.302;17.068;2023-04-08T22:39:59;50.00;;;24.70;;
77217;SDS011;66214;51.302;17.068;2023-04-08T22:45:55;42.70;;;22.10;;
77217;SDS011;66214;51.302;17.068;2023-04-08T22:48:23;41.20;;;19.50;;
77217;SDS011;66214;51.302;17.068;2023-04-08T22:50:50;41.70;;;20.90;;
77217;SDS011;66214;51.302;17.068;2023-04-08T22:53:19;42.50;;;19.60;;
77217;SDS011;66214;51.302;17.068;2023-04-08T22:55:46;43.80;;;20.40;;
77217;SDS011;66214;51.302;17.068;2023-04-08T22:58:15;41.30;;;19.00;;
77217;SDS011;66214;51.302;17.068;2023-04-08T23:00:42;47.90;;;23.30;;
77217;SDS011;66214;51.302;17.068;2023-04-08T23:03:10;44.80;;;22.10;;
77217;SDS011;66214;51.302;17.068;2023-04-08T23:05:38;50.20;;;23.90;;
77217;SDS011;66214;51.302;17.068;2023-04-08T23:08:06;48.70;;;24.00;;
77217;SDS011;66214;51.302;17.068;2023-04-08T23:10:34;54.10;;;24.00;;
77217;SDS011;66214;51.302;17.068;2023-04-08T23:13:02;54.10;;;24.80;;
77217;SDS011;66214;51.302;17.068;2023-04-08T23:15:30;48.30;;;21.80;;
77217;SDS011;66214;51.302;17.068;2023-04-08T23:17:58;42.80;;;21.50;;
77217;SDS011;66214;51.302;17.068;2023-04-08T23:20:26;43.50;;;21.60;;
77217;SDS011;66214;51.302;17.068;2023-04-08T23:22:54;62.90;;;28.40;;
77217;SDS011;66214;51.302;17.068;2023-04-08T23:25:22;48.50;;;22.60;;
77217;SDS011;66214;51.302;17.068;2023-04-08T23:27:50;45.90;;;22.20;;
77217;SDS011;66214;51.302;17.068;2023-04-08T23:30:18;40.30;;;20.60;;
77217;SDS011;66214;51.302;17.068;2023-04-08T23:32:46;45.30;;;22.10;;
77217;SDS011;66214;51.302;17.068;2023-04-08T23:35:14;54.10;;;25.30;;
77217;SDS011;66214;51.302;17.068;2023-04-08T23:37:43;52.20;;;24.20;;
77217;SDS011;66214;51.302;17.068;2023-04-08T23:40:11;57.50;;;27.10;;
77217;SDS011;66214;51.302;17.068;2023-04-08T23:42:39;62.80;;;29.70;;
77217;SDS011;66214;51.302;17.068;2023-04-08T23:45:07;68.70;;;32.50;;
77217;SDS011;66214;51.302;17.068;2023-04-08T23:47:35;57.60;;;27.20;;
77217;SDS011;66214;51.302;17.068;2023-04-08T23:50:04;55.40;;;25.90;;
77217;SDS011;66214;51.302;17.068;2023-04-08T23:52:33;48.70;;;24.30;;
77217;SDS011;66214;51.302;17.068;2023-04-08T23:58:35;48.00;;;23.90;;
